createdAt,value
2018-10-19T00:00:01.155Z,95.3
2018-10-19T00:01:01.827Z,95.2
2018-10-19T00:02:02.502Z,95.4
2018-10-19T00:03:03.194Z,95.5
2018-10-19T00:04:03.884Z,95.5
2018-10-19T00:05:04.653Z,95.5
2018-10-19T00:06:05.270Z,95.3
2018-10-19T00:07:06.035Z,95.3
2018-10-19T00:08:06.752Z,95.8
2018-10-19T00:09:07.482Z,95.6
2018-10-19T00:10:08.098Z,95.6
2018-10-19T00:11:08.844Z,95.7
2018-10-19T00:12:09.481Z,95.6
2018-10-19T00:13:10.156Z,95.7
2018-10-19T00:14:10.828Z,96.0
2018-10-19T00:15:11.556Z,95.9
2018-10-19T00:16:12.176Z,95.9
2018-10-19T00:17:12.926Z,96.0
2018-10-19T00:18:13.558Z,95.9
2018-10-19T00:19:14.231Z,95.9
2018-10-19T00:20:14.903Z,95.6
2018-10-19T00:21:15.647Z,95.9
2018-10-19T00:22:16.250Z,95.7
2018-10-19T00:23:16.922Z,95.6
2018-10-19T00:24:17.600Z,95.4
2018-10-19T00:25:18.270Z,95.6
2018-10-19T00:26:18.944Z,95.5
2018-10-19T00:27:19.618Z,95.9
2018-10-19T00:28:20.292Z,95.9
2018-10-19T00:29:20.965Z,95.5
2018-10-19T00:30:21.636Z,95.7
2018-10-19T00:31:22.314Z,96.1
2018-10-19T00:32:22.983Z,95.9
2018-10-19T00:33:23.655Z,95.9
2018-10-19T00:34:24.329Z,95.9
2018-10-19T00:35:25.003Z,96.2
2018-10-19T00:36:25.688Z,95.9
2018-10-19T00:37:26.349Z,95.7
2018-10-19T00:38:27.022Z,95.5
2018-10-19T00:39:27.694Z,95.6
2018-10-19T00:40:28.383Z,95.5
2018-10-19T00:41:29.043Z,95.6
2018-10-19T00:42:29.716Z,95.5
2018-10-19T00:43:30.389Z,95.5
2018-10-19T00:44:31.067Z,95.3
2018-10-19T00:45:31.737Z,95.5
2018-10-19T00:46:32.410Z,95.6
2018-10-19T00:47:33.083Z,95.4
2018-10-19T00:48:33.756Z,95.5
2018-10-19T00:49:34.430Z,95.3
2018-10-19T00:50:35.104Z,95.4
2018-10-19T00:51:35.777Z,95.5
2018-10-19T00:52:36.449Z,95.6
2018-10-19T00:53:37.124Z,95.5
2018-10-19T00:54:37.796Z,95.6
2018-10-19T00:55:38.470Z,95.6
2018-10-19T00:56:39.145Z,95.8
2018-10-19T00:57:39.818Z,96.2
2018-10-19T00:58:40.495Z,96.2
2018-10-19T00:59:41.208Z,95.9
2018-10-19T01:00:41.881Z,95.9
2018-10-19T01:01:42.555Z,96.3
2018-10-19T01:02:43.229Z,96.2
2018-10-19T01:03:43.901Z,96.3
2018-10-19T01:04:44.574Z,96.1
2018-10-19T01:05:45.255Z,96.1
2018-10-19T01:06:45.920Z,96.2
2018-10-19T01:07:46.602Z,96.3
2018-10-19T01:08:47.266Z,96.1
2018-10-19T01:09:47.948Z,96.1
2018-10-19T01:10:48.616Z,96.4
2018-10-19T01:11:49.289Z,96.4
2018-10-19T01:12:49.962Z,96.4
2018-10-19T01:13:50.634Z,96.4
2018-10-19T01:14:51.313Z,96.7
2018-10-19T01:15:51.986Z,96.5
2018-10-19T01:16:52.664Z,97.0
2018-10-19T01:17:53.331Z,97.0
2018-10-19T01:18:54.008Z,96.9
2018-10-19T01:19:54.678Z,96.9
2018-10-19T01:20:55.375Z,96.8
2018-10-19T01:21:56.033Z,97.2
2018-10-19T01:22:56.707Z,97.2
2018-10-19T01:23:57.372Z,96.6
2018-10-19T01:24:58.045Z,96.7
2018-10-19T01:25:58.717Z,96.7
2018-10-19T01:26:59.418Z,96.9
2018-10-19T01:28:00.066Z,96.6
2018-10-19T01:29:00.796Z,97.1
2018-10-19T01:30:01.415Z,97.4
2018-10-19T01:31:02.180Z,97.0
2018-10-19T01:32:02.853Z,97.0
2018-10-19T01:33:03.583Z,97.1
2018-10-19T01:34:04.216Z,97.2
2018-10-19T01:35:04.964Z,97.4
2018-10-19T01:36:05.589Z,97.1
2018-10-19T01:37:06.268Z,97.7
2018-10-19T01:38:06.933Z,97.5
2018-10-19T01:39:07.677Z,97.8
2018-10-19T01:40:08.319Z,97.5
2018-10-19T01:41:09.064Z,97.5
2018-10-19T01:42:09.669Z,97.5
2018-10-19T01:43:10.384Z,97.4
2018-10-19T01:44:11.059Z,97.5
2018-10-19T01:45:11.755Z,97.4
2018-10-19T01:46:12.454Z,97.6
2018-10-19T01:47:13.190Z,97.6
2018-10-19T01:48:13.802Z,97.6
2018-10-19T01:49:14.479Z,97.5
2018-10-19T01:50:15.157Z,97.6
2018-10-19T01:51:15.854Z,97.4
2018-10-19T01:52:16.530Z,98.0
2018-10-19T01:53:17.263Z,97.4
2018-10-19T01:54:17.913Z,97.7
2018-10-19T01:55:18.587Z,97.6
2018-10-19T01:56:19.259Z,97.6
2018-10-19T01:57:19.930Z,97.6
2018-10-19T01:58:20.605Z,98.1
2018-10-19T01:59:21.287Z,98.3
2018-10-19T02:00:21.995Z,97.9
2018-10-19T02:01:22.668Z,98.0
2018-10-19T02:02:23.387Z,98.0
2018-10-19T02:03:24.058Z,98.0
2018-10-19T02:04:24.731Z,98.3
2018-10-19T02:05:25.403Z,98.0
2018-10-19T02:06:26.079Z,97.9
2018-10-19T02:07:26.798Z,97.9
2018-10-19T02:08:27.469Z,97.9
2018-10-19T02:09:28.141Z,97.9
2018-10-19T02:10:28.817Z,97.9
2018-10-19T02:11:29.488Z,98.0
2018-10-19T02:12:30.162Z,98.1
2018-10-19T02:13:30.838Z,98.1
2018-10-19T02:14:31.508Z,97.6
2018-10-19T02:15:32.181Z,97.9
2018-10-19T02:16:32.854Z,98.4
2018-10-19T02:17:33.526Z,98.5
2018-10-19T02:18:34.199Z,98.4
2018-10-19T02:19:34.874Z,98.9
2018-10-19T02:20:35.546Z,98.5
2018-10-19T02:21:36.228Z,98.7
2018-10-19T02:22:36.892Z,98.9
2018-10-19T02:23:37.568Z,98.6
2018-10-19T02:24:38.282Z,98.8
2018-10-19T02:25:38.956Z,98.7
2018-10-19T02:26:39.627Z,98.8
2018-10-19T02:27:40.300Z,98.5
2018-10-19T02:28:40.974Z,98.7
2018-10-19T02:29:41.648Z,98.5
2018-10-19T02:30:42.321Z,98.6
2018-10-19T02:31:42.993Z,98.6
2018-10-19T02:32:43.671Z,98.9
2018-10-19T02:33:44.341Z,98.9
2018-10-19T02:34:45.014Z,99.4
2018-10-19T02:35:45.688Z,99.1
2018-10-19T02:36:46.360Z,99.2
2018-10-19T02:37:47.033Z,98.9
2018-10-19T02:38:47.705Z,98.9
2018-10-19T02:39:48.395Z,98.9
2018-10-19T02:40:49.094Z,98.7
2018-10-19T02:41:49.767Z,98.9
2018-10-19T02:42:50.439Z,98.7
2018-10-19T02:43:51.112Z,98.9
2018-10-19T02:44:51.789Z,98.9
2018-10-19T02:45:52.459Z,98.9
2018-10-19T02:46:53.158Z,98.8
2018-10-19T02:47:53.805Z,99.1
2018-10-19T02:48:54.485Z,99.4
2018-10-19T02:49:55.149Z,99.1
2018-10-19T02:50:55.874Z,99.2
2018-10-19T02:51:56.496Z,99.0
2018-10-19T02:52:57.247Z,99.0
2018-10-19T02:53:57.841Z,99.0
2018-10-19T02:54:58.520Z,99.2
2018-10-19T02:55:59.189Z,99.6
2018-10-19T02:56:59.976Z,99.4
2018-10-19T02:58:00.579Z,99.4
2018-10-19T02:59:01.271Z,99.6
2018-10-19T03:00:01.926Z,99.5
2018-10-19T03:01:02.598Z,99.6
2018-10-19T03:02:03.271Z,99.5
2018-10-19T03:03:03.949Z,99.4
2018-10-19T03:04:04.618Z,99.2
2018-10-19T03:05:05.318Z,99.2
2018-10-19T03:06:06.007Z,99.5
2018-10-19T03:07:06.679Z,99.6
2018-10-19T03:08:07.353Z,99.7
2018-10-19T03:09:08.081Z,99.5
2018-10-19T03:10:08.709Z,99.5
2018-10-19T03:11:09.476Z,99.2
2018-10-19T03:12:10.090Z,99.5
2018-10-19T03:13:10.763Z,99.4
2018-10-19T03:14:11.435Z,99.6
2018-10-19T03:15:12.215Z,99.5
2018-10-19T03:16:12.782Z,99.2
2018-10-19T03:17:13.496Z,99.0
2018-10-19T03:18:14.128Z,99.2
2018-10-19T03:19:14.801Z,99.4
2018-10-19T03:20:15.520Z,99.0
2018-10-19T03:21:16.238Z,99.7
2018-10-19T03:22:16.866Z,99.7
2018-10-19T03:23:17.683Z,99.3
2018-10-19T03:24:18.214Z,99.3
2018-10-19T03:25:18.885Z,99.4
2018-10-19T03:26:19.558Z,99.7
2018-10-19T03:27:20.339Z,99.7
2018-10-19T03:28:20.902Z,99.5
2018-10-19T03:29:21.651Z,99.2
2018-10-19T03:30:22.251Z,100.0
2018-10-19T03:31:22.932Z,100.0
2018-10-19T03:32:23.597Z,99.7
2018-10-19T03:33:24.273Z,100.0
2018-10-19T03:34:24.949Z,100.0
2018-10-19T03:35:25.620Z,100.0
2018-10-19T03:36:26.294Z,100.0
2018-10-19T03:37:26.969Z,100.0
2018-10-19T03:38:27.644Z,100.0
2018-10-19T03:39:28.317Z,100.0
2018-10-19T03:40:28.991Z,100.0
2018-10-19T03:41:29.667Z,100.0
2018-10-19T03:42:30.340Z,100.0
2018-10-19T03:43:31.013Z,100.0
2018-10-19T03:44:31.686Z,100.0
2018-10-19T03:45:32.366Z,100.0
2018-10-19T03:46:33.040Z,100.0
2018-10-19T03:47:33.709Z,100.0
2018-10-19T03:48:34.382Z,100.0
2018-10-19T03:49:35.056Z,100.0
2018-10-19T03:50:35.728Z,100.0
2018-10-19T03:51:36.403Z,100.0
2018-10-19T03:52:37.077Z,100.0
2018-10-19T03:53:37.752Z,100.0
2018-10-19T03:54:38.428Z,100.0
2018-10-19T03:55:39.152Z,100.0
2018-10-19T03:56:39.817Z,100.0
2018-10-19T03:57:40.493Z,100.0
2018-10-19T03:58:41.211Z,100.0
2018-10-19T03:59:41.887Z,100.0
2018-10-19T04:00:42.604Z,100.0
2018-10-19T04:01:43.276Z,100.0
2018-10-19T04:02:43.951Z,100.0
2018-10-19T04:03:44.662Z,100.0
2018-10-19T04:04:45.299Z,100.0
2018-10-19T04:05:45.972Z,100.0
2018-10-19T04:06:46.646Z,100.0
2018-10-19T04:07:47.319Z,100.0
2018-10-19T04:08:47.997Z,100.0
2018-10-19T04:09:48.667Z,100.0
2018-10-19T04:10:49.340Z,100.0
2018-10-19T04:11:50.023Z,100.0
2018-10-19T04:12:50.690Z,100.0
2018-10-19T04:13:51.369Z,100.0
2018-10-19T04:14:52.039Z,100.0
2018-10-19T04:15:52.709Z,100.0
2018-10-19T04:16:53.431Z,100.0
2018-10-19T04:17:54.057Z,100.0
2018-10-19T04:18:54.732Z,100.0
2018-10-19T04:19:55.405Z,100.0
2018-10-19T04:20:56.091Z,100.0
2018-10-19T04:21:56.753Z,100.0
2018-10-19T04:22:57.444Z,100.0
2018-10-19T04:23:58.143Z,100.0
2018-10-19T04:24:58.818Z,100.0
2018-10-19T04:25:59.495Z,100.0
2018-10-19T04:27:00.226Z,100.0
2018-10-19T04:28:00.839Z,100.0
2018-10-19T04:29:01.553Z,100.0
2018-10-19T04:30:02.225Z,100.0
2018-10-19T04:31:02.897Z,100.0
2018-10-19T04:32:03.571Z,100.0
2018-10-19T04:33:04.264Z,100.0
2018-10-19T04:34:04.966Z,100.0
2018-10-19T04:35:05.735Z,100.0
2018-10-19T04:36:06.354Z,100.0
2018-10-19T04:37:07.030Z,100.0
2018-10-19T04:38:07.703Z,100.0
2018-10-19T04:39:08.435Z,100.0
2018-10-19T04:40:09.088Z,100.0
2018-10-19T04:41:09.835Z,100.0
2018-10-19T04:42:10.480Z,100.0
2018-10-19T04:43:11.145Z,100.0
2018-10-19T04:44:11.819Z,100.0
2018-10-19T04:45:12.553Z,100.0
2018-10-19T04:46:13.168Z,100.0
2018-10-19T04:47:13.989Z,100.0
2018-10-19T04:48:14.516Z,100.0
2018-10-19T04:49:15.188Z,100.0
2018-10-19T04:50:15.864Z,100.0
2018-10-19T04:51:16.607Z,100.0
2018-10-19T04:52:17.265Z,100.0
2018-10-19T04:53:18.008Z,100.0
2018-10-19T04:54:18.593Z,100.0
2018-10-19T04:55:19.265Z,100.0
2018-10-19T04:56:19.939Z,100.0
2018-10-19T04:57:20.730Z,100.0
2018-10-19T04:58:21.339Z,100.0
2018-10-19T04:59:22.012Z,100.0
2018-10-19T05:00:22.685Z,100.0
2018-10-19T05:01:23.366Z,100.0
2018-10-19T05:02:24.066Z,100.0
2018-10-19T05:03:24.709Z,100.0
2018-10-19T05:04:25.435Z,100.0
2018-10-19T05:05:26.158Z,100.0
2018-10-19T05:06:26.780Z,100.0
2018-10-19T05:07:27.405Z,100.0
2018-10-19T05:08:28.079Z,100.0
2018-10-19T05:09:28.753Z,100.0
2018-10-19T05:10:29.429Z,100.0
2018-10-19T05:11:30.144Z,100.0
2018-10-19T05:12:30.918Z,100.0
2018-10-19T05:13:31.540Z,100.0
2018-10-19T05:14:32.220Z,100.0
2018-10-19T05:15:32.885Z,100.0
2018-10-19T05:16:33.557Z,100.0
2018-10-19T05:17:34.232Z,100.0
2018-10-19T05:18:34.907Z,100.0
2018-10-19T05:19:35.580Z,100.0
2018-10-19T05:20:36.254Z,100.0
2018-10-19T05:21:36.928Z,100.0
2018-10-19T05:22:37.646Z,100.0
2018-10-19T05:23:38.319Z,100.0
2018-10-19T05:24:39.069Z,100.0
2018-10-19T05:25:39.690Z,100.0
2018-10-19T05:26:40.386Z,100.0
2018-10-19T05:27:41.059Z,100.0
2018-10-19T05:28:41.734Z,100.0
2018-10-19T05:29:42.408Z,100.0
2018-10-19T05:30:43.081Z,100.0
2018-10-19T05:31:43.756Z,100.0
2018-10-19T05:32:44.432Z,100.0
2018-10-19T05:33:45.103Z,100.0
2018-10-19T05:34:45.781Z,100.0
2018-10-19T05:35:46.450Z,100.0
2018-10-19T05:36:47.127Z,100.0
2018-10-19T05:37:47.839Z,100.0
2018-10-19T05:38:48.474Z,100.0
2018-10-19T05:39:49.149Z,100.0
2018-10-19T05:40:49.825Z,100.0
2018-10-19T05:41:50.499Z,100.0
2018-10-19T05:42:51.173Z,100.0
2018-10-19T05:43:51.897Z,100.0
2018-10-19T05:44:52.567Z,100.0
2018-10-19T05:45:53.243Z,100.0
2018-10-19T05:46:53.926Z,100.0
2018-10-19T05:47:54.593Z,100.0
2018-10-19T05:48:55.312Z,100.0
2018-10-19T05:49:56.017Z,100.0
2018-10-19T05:50:56.666Z,100.0
2018-10-19T05:51:57.361Z,100.0
2018-10-19T05:52:58.083Z,100.0
2018-10-19T05:53:58.729Z,100.0
2018-10-19T05:54:59.404Z,100.0
2018-10-19T05:56:00.112Z,100.0
2018-10-19T05:57:00.756Z,100.0
2018-10-19T05:58:01.485Z,100.0
2018-10-19T05:59:02.207Z,100.0
2018-10-19T06:00:02.874Z,100.0
2018-10-19T06:01:03.641Z,100.0
2018-10-19T06:02:04.405Z,100.0
2018-10-19T06:03:05.038Z,100.0
2018-10-19T06:04:05.706Z,100.0
2018-10-19T06:05:06.396Z,100.0
2018-10-19T06:06:07.057Z,100.0
2018-10-19T06:07:07.731Z,100.0
2018-10-19T06:08:08.471Z,100.0
2018-10-19T06:09:09.081Z,100.0
2018-10-19T06:10:09.756Z,100.0
2018-10-19T06:11:10.500Z,100.0
2018-10-19T06:12:11.110Z,100.0
2018-10-19T06:13:11.785Z,100.0
2018-10-19T06:14:12.504Z,100.0
2018-10-19T06:15:13.173Z,100.0
2018-10-19T06:16:13.861Z,100.0
2018-10-19T06:17:14.570Z,100.0
2018-10-19T06:18:15.204Z,100.0
2018-10-19T06:19:15.881Z,100.0
2018-10-19T06:20:16.585Z,99.9
2018-10-19T06:21:17.319Z,100.0
2018-10-19T06:22:17.921Z,100.0
2018-10-19T06:23:18.679Z,100.0
2018-10-19T06:24:19.266Z,100.0
2018-10-19T06:25:19.945Z,100.0
2018-10-19T06:26:20.645Z,99.9
2018-10-19T06:27:21.297Z,100.0
2018-10-19T06:28:21.974Z,100.0
2018-10-19T06:29:22.650Z,100.0
2018-10-19T06:30:23.328Z,100.0
2018-10-19T06:31:24.005Z,100.0
2018-10-19T06:32:24.681Z,100.0
2018-10-19T06:33:25.357Z,99.7
2018-10-19T06:34:26.034Z,100.0
2018-10-19T06:35:26.711Z,100.0
2018-10-19T06:36:27.389Z,100.0
2018-10-19T06:37:28.066Z,100.0
2018-10-19T06:38:28.742Z,100.0
2018-10-19T06:39:29.420Z,100.0
2018-10-19T06:40:30.110Z,99.5
2018-10-19T06:41:30.814Z,99.5
2018-10-19T06:42:31.492Z,99.5
2018-10-19T06:43:32.169Z,99.6
2018-10-19T06:44:32.896Z,99.6
2018-10-19T06:45:33.607Z,99.4
2018-10-19T06:46:34.325Z,99.5
2018-10-19T06:47:34.963Z,99.3
2018-10-19T06:48:35.635Z,99.6
2018-10-19T06:49:36.310Z,99.2
2018-10-19T06:50:36.986Z,99.1
2018-10-19T06:51:37.678Z,99.4
2018-10-19T06:52:38.337Z,99.1
2018-10-19T06:53:39.013Z,98.9
2018-10-19T06:54:39.696Z,99.1
2018-10-19T06:55:40.377Z,98.9
2018-10-19T06:56:41.113Z,99.0
2018-10-19T06:57:41.805Z,98.9
2018-10-19T06:58:42.484Z,98.8
2018-10-19T06:59:43.158Z,98.8
2018-10-19T07:00:43.849Z,98.6
2018-10-19T07:01:44.554Z,98.6
2018-10-19T07:02:45.230Z,98.3
2018-10-19T07:03:45.905Z,98.3
2018-10-19T07:04:46.585Z,97.8
2018-10-19T07:05:47.416Z,97.7
2018-10-19T07:06:47.935Z,97.8
2018-10-19T07:07:48.662Z,98.1
2018-10-19T07:08:49.332Z,98.0
2018-10-19T07:09:50.008Z,97.7
2018-10-19T07:10:50.685Z,97.1
2018-10-19T07:11:51.359Z,97.1
2018-10-19T07:12:52.037Z,97.2
2018-10-19T07:13:52.755Z,96.9
2018-10-19T07:14:53.388Z,97.0
2018-10-19T07:15:54.130Z,96.7
2018-10-19T07:16:54.767Z,96.9
2018-10-19T07:17:55.415Z,97.3
2018-10-19T07:18:56.109Z,96.9
2018-10-19T07:19:56.785Z,96.7
2018-10-19T07:20:57.444Z,96.8
2018-10-19T07:21:58.124Z,96.8
2018-10-19T07:22:58.820Z,96.6
2018-10-19T07:23:59.474Z,96.2
2018-10-19T07:25:00.151Z,96.1
2018-10-19T07:26:00.839Z,95.9
2018-10-19T07:27:01.540Z,96.2
2018-10-19T07:28:02.218Z,96.5
2018-10-19T07:29:02.922Z,95.7
2018-10-19T07:30:03.573Z,95.8
2018-10-19T07:31:04.250Z,95.6
2018-10-19T07:32:04.952Z,95.8
2018-10-19T07:33:05.607Z,95.8
2018-10-19T07:34:06.285Z,95.8
2018-10-19T07:35:07.021Z,95.8
2018-10-19T07:36:07.671Z,95.4
2018-10-19T07:37:08.394Z,94.9
2018-10-19T07:38:09.073Z,95.1
2018-10-19T07:39:09.749Z,94.3
2018-10-19T07:40:10.471Z,94.4
2018-10-19T07:41:11.243Z,93.9
2018-10-19T07:42:11.901Z,94.1
2018-10-19T07:43:12.503Z,93.6
2018-10-19T07:44:13.224Z,93.4
2018-10-19T07:45:13.897Z,93.5
2018-10-19T07:46:14.615Z,93.2
2018-10-19T07:47:15.424Z,93.1
2018-10-19T07:48:15.993Z,93.0
2018-10-19T07:49:16.648Z,92.3
2018-10-19T07:50:17.437Z,92.7
2018-10-19T07:51:18.047Z,92.6
2018-10-19T07:52:18.735Z,92.1
2018-10-19T07:53:19.403Z,92.2
2018-10-19T07:54:20.090Z,91.9
2018-10-19T07:55:20.757Z,91.6
2018-10-19T07:56:21.446Z,91.7
2018-10-19T07:57:22.110Z,91.6
2018-10-19T07:58:22.789Z,91.9
2018-10-19T07:59:23.467Z,91.3
2018-10-19T08:00:24.212Z,91.3
2018-10-19T08:01:24.859Z,90.8
2018-10-19T08:02:25.535Z,91.1
2018-10-19T08:03:26.212Z,90.4
2018-10-19T08:04:26.891Z,90.5
2018-10-19T08:05:27.568Z,90.6
2018-10-19T08:06:28.244Z,90.8
2018-10-19T08:07:28.966Z,90.4
2018-10-19T08:08:29.650Z,89.8
2018-10-19T08:09:30.319Z,89.8
2018-10-19T08:10:30.997Z,90.0
2018-10-19T08:11:31.747Z,89.9
2018-10-19T08:12:32.351Z,90.0
2018-10-19T08:13:33.047Z,90.1
2018-10-19T08:14:33.747Z,89.6
2018-10-19T08:15:34.425Z,89.8
2018-10-19T08:16:35.147Z,89.8
2018-10-19T08:17:35.867Z,89.2
2018-10-19T08:18:36.544Z,89.2
2018-10-19T08:19:37.221Z,89.4
2018-10-19T08:20:37.902Z,89.6
2018-10-19T08:21:38.581Z,89.3
2018-10-19T08:22:39.253Z,88.6
2018-10-19T08:23:39.935Z,88.6
2018-10-19T08:24:40.608Z,88.9
2018-10-19T08:25:41.285Z,89.1
2018-10-19T08:26:41.965Z,88.8
2018-10-19T08:27:42.695Z,88.6
2018-10-19T08:28:43.367Z,88.3
2018-10-19T08:29:44.043Z,88.4
2018-10-19T08:30:44.722Z,88.6
2018-10-19T08:31:45.443Z,88.6
2018-10-19T08:32:46.120Z,88.1
2018-10-19T08:33:46.796Z,87.8
2018-10-19T08:34:47.476Z,87.7
2018-10-19T08:35:48.195Z,87.6
2018-10-19T08:36:48.873Z,87.6
2018-10-19T08:37:49.552Z,87.5
2018-10-19T08:38:50.230Z,87.1
2018-10-19T08:39:50.907Z,86.7
2018-10-19T08:40:51.585Z,86.9
2018-10-19T08:41:52.419Z,86.7
2018-10-19T08:42:52.947Z,86.8
2018-10-19T08:43:53.615Z,86.9
2018-10-19T08:44:54.294Z,86.5
2018-10-19T08:45:54.971Z,86.3
2018-10-19T08:46:55.684Z,86.5
2018-10-19T08:47:56.368Z,85.5
2018-10-19T08:48:57.071Z,85.7
2018-10-19T08:49:57.724Z,85.2
2018-10-19T08:50:58.453Z,84.8
2018-10-19T08:51:59.081Z,85.2
2018-10-19T08:52:59.787Z,85.1
2018-10-19T08:54:00.439Z,85.2
2018-10-19T08:55:01.188Z,85.2
2018-10-19T08:56:01.809Z,84.7
2018-10-19T08:57:02.521Z,84.3
2018-10-19T08:58:03.194Z,84.4
2018-10-19T08:59:03.900Z,84.4
2018-10-19T09:00:04.606Z,84.9
2018-10-19T09:01:05.225Z,84.9
2018-10-19T09:02:05.902Z,84.3
2018-10-19T09:03:06.595Z,83.8
2018-10-19T09:04:07.297Z,83.8
2018-10-19T09:05:07.982Z,83.9
2018-10-19T09:06:08.692Z,83.9
2018-10-19T09:07:09.295Z,83.3
2018-10-19T09:08:09.981Z,83.4
2018-10-19T09:09:10.756Z,83.4
2018-10-19T09:10:11.336Z,83.3
2018-10-19T09:11:12.029Z,83.4
2018-10-19T09:12:12.701Z,83.2
2018-10-19T09:13:13.371Z,82.8
2018-10-19T09:14:14.052Z,82.8
2018-10-19T09:15:14.776Z,82.8
2018-10-19T09:16:15.409Z,82.2
2018-10-19T09:17:16.129Z,81.9
2018-10-19T09:18:16.810Z,81.9
2018-10-19T09:19:17.483Z,81.5
2018-10-19T09:20:18.174Z,81.6
2018-10-19T09:21:18.852Z,81.7
2018-10-19T09:22:19.522Z,81.5
2018-10-19T09:23:20.204Z,81.1
2018-10-19T09:24:20.883Z,80.7
2018-10-19T09:25:21.568Z,80.5
2018-10-19T09:26:22.285Z,80.3
2018-10-19T09:27:22.965Z,80.0
2018-10-19T09:28:23.646Z,79.0
2018-10-19T09:29:24.343Z,79.7
2018-10-19T09:30:25.046Z,79.5
2018-10-19T09:31:25.728Z,79.2
2018-10-19T09:32:26.407Z,78.8
2018-10-19T09:33:27.089Z,77.9
2018-10-19T09:34:27.812Z,78.1
2018-10-19T09:35:28.547Z,78.0
2018-10-19T09:36:29.280Z,77.8
2018-10-19T09:37:29.889Z,77.3
2018-10-19T09:38:30.569Z,77.7
2018-10-19T09:39:31.249Z,77.2
2018-10-19T09:40:31.929Z,77.1
2018-10-19T09:41:32.608Z,77.0
2018-10-19T09:42:33.288Z,77.0
2018-10-19T09:43:33.969Z,76.7
2018-10-19T09:44:34.651Z,76.8
2018-10-19T09:45:35.338Z,76.6
2018-10-19T09:46:36.009Z,76.4
2018-10-19T09:47:36.742Z,76.6
2018-10-19T09:48:37.369Z,75.9
2018-10-19T09:49:38.056Z,76.0
2018-10-19T09:50:38.729Z,76.0
2018-10-19T09:51:39.410Z,75.6
2018-10-19T09:52:40.091Z,75.3
2018-10-19T09:53:40.771Z,75.0
2018-10-19T09:54:41.455Z,75.3
2018-10-19T09:55:42.138Z,75.0
2018-10-19T09:56:42.814Z,75.7
2018-10-19T09:57:43.498Z,75.3
2018-10-19T09:58:44.175Z,75.0
2018-10-19T09:59:44.855Z,74.8
2018-10-19T10:00:45.589Z,74.9
2018-10-19T10:01:46.305Z,74.3
2018-10-19T10:02:47.029Z,74.3
2018-10-19T10:03:47.718Z,73.9
2018-10-19T10:04:48.389Z,74.1
2018-10-19T10:05:49.070Z,73.9
2018-10-19T10:06:49.752Z,74.3
2018-10-19T10:07:50.501Z,74.1
2018-10-19T10:08:51.155Z,74.1
2018-10-19T10:09:51.865Z,73.8
2018-10-19T10:10:52.585Z,73.6
2018-10-19T10:11:53.242Z,73.9
2018-10-19T10:12:53.941Z,73.9
2018-10-19T10:13:54.603Z,73.9
2018-10-19T10:14:55.355Z,73.5
2018-10-19T10:15:56.109Z,73.4
2018-10-19T10:16:56.771Z,73.3
2018-10-19T10:17:57.374Z,72.6
2018-10-19T10:18:58.100Z,72.8
2018-10-19T10:19:58.731Z,72.3
2018-10-19T10:20:59.413Z,72.1
2018-10-19T10:22:00.151Z,72.0
2018-10-19T10:23:00.811Z,71.9
2018-10-19T10:24:01.495Z,71.6
2018-10-19T10:25:02.219Z,71.5
2018-10-19T10:26:02.858Z,71.4
2018-10-19T10:27:03.535Z,71.8
2018-10-19T10:28:04.321Z,71.7
2018-10-19T10:29:04.896Z,71.2
2018-10-19T10:30:05.578Z,70.6
2018-10-19T10:31:06.340Z,70.6
2018-10-19T10:32:07.047Z,71.7
2018-10-19T10:33:07.687Z,71.0
2018-10-19T10:34:08.427Z,70.8
2018-10-19T10:35:09.065Z,70.8
2018-10-19T10:36:09.747Z,70.8
2018-10-19T10:37:10.512Z,70.8
2018-10-19T10:38:11.146Z,70.7
2018-10-19T10:39:11.914Z,70.3
2018-10-19T10:40:12.608Z,70.4
2018-10-19T10:41:13.266Z,70.6
2018-10-19T10:42:13.946Z,70.2
2018-10-19T10:43:14.718Z,70.6
2018-10-19T10:44:15.312Z,70.0
2018-10-19T10:45:15.990Z,69.6
2018-10-19T10:46:16.742Z,69.1
2018-10-19T10:47:17.354Z,69.3
2018-10-19T10:48:18.078Z,69.3
2018-10-19T10:49:18.764Z,69.3
2018-10-19T10:50:19.444Z,68.9
2018-10-19T10:51:20.121Z,68.5
2018-10-19T10:52:20.804Z,68.8
2018-10-19T10:53:21.487Z,68.9
2018-10-19T10:54:22.173Z,68.6
2018-10-19T10:55:22.850Z,68.7
2018-10-19T10:56:23.537Z,68.1
2018-10-19T10:57:24.210Z,68.2
2018-10-19T10:58:24.892Z,68.4
2018-10-19T10:59:25.574Z,68.3
2018-10-19T11:00:26.256Z,68.3
2018-10-19T11:01:26.973Z,68.5
2018-10-19T11:02:27.663Z,68.0
2018-10-19T11:03:28.348Z,68.1
2018-10-19T11:04:29.027Z,68.1
2018-10-19T11:05:29.707Z,67.9
2018-10-19T11:06:30.394Z,67.8
2018-10-19T11:07:31.223Z,68.4
2018-10-19T11:08:31.753Z,68.4
2018-10-19T11:09:32.433Z,68.1
2018-10-19T11:10:33.116Z,68.1
2018-10-19T11:11:33.807Z,68.4
2018-10-19T11:12:34.521Z,68.0
2018-10-19T11:13:35.203Z,68.1
2018-10-19T11:14:35.954Z,68.0
2018-10-19T11:15:36.653Z,67.7
2018-10-19T11:16:37.334Z,67.8
2018-10-19T11:17:38.016Z,68.1
2018-10-19T11:18:38.699Z,67.9
2018-10-19T11:19:39.379Z,67.2
2018-10-19T11:20:40.060Z,67.4
2018-10-19T11:21:40.748Z,67.1
2018-10-19T11:22:41.466Z,67.2
2018-10-19T11:23:42.148Z,67.5
2018-10-19T11:24:42.840Z,67.5
2018-10-19T11:25:43.511Z,67.2
2018-10-19T11:26:44.199Z,67.5
2018-10-19T11:27:44.915Z,67.0
2018-10-19T11:28:45.594Z,66.7
2018-10-19T11:29:46.271Z,66.5
2018-10-19T11:30:47.070Z,66.5
2018-10-19T11:31:47.633Z,66.1
2018-10-19T11:32:48.333Z,66.3
2018-10-19T11:33:49.039Z,66.2
2018-10-19T11:34:49.722Z,66.6
2018-10-19T11:35:50.448Z,66.5
2018-10-19T11:36:51.128Z,66.3
2018-10-19T11:37:51.864Z,66.3
2018-10-19T11:38:52.491Z,66.4
2018-10-19T11:39:53.181Z,66.5
2018-10-19T11:40:53.853Z,65.6
2018-10-19T11:41:54.534Z,65.9
2018-10-19T11:42:55.264Z,65.5
2018-10-19T11:43:55.900Z,66.0
2018-10-19T11:44:56.584Z,65.6
2018-10-19T11:45:57.363Z,65.5
2018-10-19T11:46:57.992Z,66.1
2018-10-19T11:47:58.713Z,66.0
2018-10-19T11:48:59.439Z,65.6
2018-10-19T11:50:00.075Z,65.7
2018-10-19T11:51:00.755Z,66.0
2018-10-19T11:52:01.497Z,65.8
2018-10-19T11:53:02.155Z,65.9
2018-10-19T11:54:02.833Z,66.0
2018-10-19T11:55:03.551Z,65.9
2018-10-19T11:56:04.199Z,65.7
2018-10-19T11:57:04.941Z,65.8
2018-10-19T11:58:05.640Z,65.6
2018-10-19T11:59:06.281Z,65.4
2018-10-19T12:00:07.005Z,65.7
2018-10-19T12:01:07.695Z,65.6
2018-10-19T12:02:08.376Z,65.0
2018-10-19T12:03:09.051Z,65.6
2018-10-19T12:04:09.788Z,66.0
2018-10-19T12:05:10.414Z,65.6
2018-10-19T12:06:11.165Z,65.9
2018-10-19T12:07:11.916Z,65.5
2018-10-19T12:08:12.566Z,64.8
2018-10-19T12:09:13.274Z,64.7
2018-10-19T12:10:14.059Z,64.7
2018-10-19T12:11:14.718Z,64.6
2018-10-19T12:12:15.410Z,64.5
2018-10-19T12:13:16.184Z,64.5
2018-10-19T12:14:16.805Z,64.4
2018-10-19T12:15:17.586Z,64.4
2018-10-19T12:16:18.358Z,64.4
2018-10-19T12:17:18.943Z,64.7
2018-10-19T12:18:19.666Z,64.6
2018-10-19T12:19:20.349Z,64.2
2018-10-19T12:20:21.081Z,63.9
2018-10-19T12:21:21.850Z,63.5
2018-10-19T12:22:22.461Z,63.6
2018-10-19T12:23:23.169Z,63.5
2018-10-19T12:24:23.853Z,63.2
2018-10-19T12:25:24.534Z,63.2
2018-10-19T12:26:25.213Z,62.9
2018-10-19T12:27:25.894Z,63.2
2018-10-19T12:28:26.575Z,62.5
2018-10-19T12:29:27.260Z,62.5
2018-10-19T12:30:27.936Z,61.8
2018-10-19T12:32:14.545Z,61.9
2018-10-19T12:33:15.309Z,61.5
2018-10-19T12:34:15.927Z,60.5
2018-10-19T12:35:16.644Z,60.1
2018-10-19T12:36:17.325Z,58.4
2018-10-19T12:37:18.008Z,57.3
2018-10-19T12:38:18.687Z,57.5
2018-10-19T12:39:19.419Z,57.2
2018-10-19T12:40:20.098Z,57.6
2018-10-19T12:41:20.789Z,57.9
2018-10-19T12:42:21.506Z,58.0
2018-10-19T12:43:22.186Z,58.2
2018-10-19T12:44:22.903Z,58.5
2018-10-19T12:45:23.598Z,57.9
2018-10-19T12:46:24.276Z,58.1
2018-10-19T12:47:25.034Z,57.9
2018-10-19T12:48:25.636Z,57.9
2018-10-19T12:49:26.365Z,57.9
2018-10-19T12:50:27.043Z,58.0
2018-10-19T12:51:27.759Z,58.2
2018-10-19T12:52:28.455Z,58.2
2018-10-19T12:53:29.130Z,58.1
2018-10-19T12:54:29.940Z,58.1
2018-10-19T12:55:30.496Z,57.5
2018-10-19T12:56:31.176Z,57.3
2018-10-19T12:57:31.925Z,56.7
2018-10-19T12:58:32.616Z,56.8
2018-10-19T12:59:33.298Z,56.2
2018-10-19T13:00:33.991Z,56.3
2018-10-19T13:01:34.726Z,56.2
2018-10-19T13:02:35.387Z,56.4
2018-10-19T13:03:36.178Z,56.4
2018-10-19T13:04:36.788Z,56.5
2018-10-19T13:05:37.466Z,56.8
2018-10-19T13:06:38.149Z,56.7
2018-10-19T13:07:38.827Z,57.1
2018-10-19T13:08:39.507Z,57.6
2018-10-19T13:09:40.187Z,57.6
2018-10-19T13:10:40.868Z,57.3
2018-10-19T13:11:41.549Z,57.8
2018-10-19T13:12:42.228Z,57.1
2018-10-19T13:13:42.910Z,57.6
2018-10-19T13:14:43.590Z,57.8
2018-10-19T13:15:44.271Z,57.6
2018-10-19T13:16:44.950Z,57.8
2018-10-19T13:17:45.631Z,58.3
2018-10-19T13:18:46.356Z,58.0
2018-10-19T13:19:47.039Z,58.2
2018-10-19T13:20:47.717Z,58.0
2018-10-19T13:21:48.449Z,57.9